Time;durP1;ratioP1;P1;durP2;ratioP2;P2;SDS_P1;SDS_P2;PMS_P1;PMS_P2;Temp;Humidity;BMP_temperature;BMP_pressure;BME280_temperature;BME280_humidity;BME280_pressure;Samples;Min_cycle;Max_cycle;Signal;HPM_P1;HPM_P2
2023/12/06 00:01:07;;;;;;;;;31.50;26.75;;;;;3.23;89.96;101067.22;5036329;28;11564;-67
2023/12/06 00:03:34;;;;;;;;;32.50;29.25;;;;;3.27;90.10;101069.59;5082712;23;11714;-66
2023/12/06 00:06:00;;;;;;;;;31.25;26.75;;;;;3.29;90.14;101062.34;5094613;28;11678;-66
2023/12/06 00:08:27;;;;;;;;;28.50;23.25;;;;;3.31;90.69;101065.69;5087637;28;11602;-66
2023/12/06 00:10:54;;;;;;;;;27.25;24.00;;;;;3.31;90.27;101066.53;5092571;28;12200;-66
2023/12/06 00:13:21;;;;;;;;;29.00;27.00;;;;;3.29;90.11;101065.84;5059042;28;11615;-66
2023/12/06 00:15:47;;;;;;;;;28.00;27.25;;;;;3.29;90.43;101065.00;5047607;28;11575;-66
2023/12/06 00:18:14;;;;;;;;;24.50;23.75;;;;;3.28;89.97;101069.50;5068643;28;11569;-66
2023/12/06 00:20:41;;;;;;;;;34.00;28.25;;;;;3.31;90.42;101076.31;5072612;28;11550;-66
2023/12/06 00:23:07;;;;;;;;;25.50;24.50;;;;;3.36;90.09;101076.72;5064400;28;11975;-65
2023/12/06 00:25:34;;;;;;;;;25.25;24.75;;;;;3.37;90.15;101076.63;5053016;28;12309;-66
2023/12/06 00:28:01;;;;;;;;;29.00;26.25;;;;;3.36;90.38;101080.25;5061802;28;11568;-66
2023/12/06 00:30:28;;;;;;;;;32.00;28.50;;;;;3.40;89.98;101081.66;5088487;28;11544;-65
2023/12/06 00:32:55;;;;;;;;;33.75;29.00;;;;;3.35;90.20;101080.38;5069265;28;11713;-66
2023/12/06 00:35:22;;;;;;;;;32.75;29.50;;;;;3.36;90.00;101082.91;5067270;28;11600;-66
2023/12/06 00:37:48;;;;;;;;;32.25;25.00;;;;;3.38;90.24;101080.94;5057716;28;11720;-66
2023/12/06 00:40:15;;;;;;;;;32.00;31.00;;;;;3.36;89.88;101084.72;5065310;28;11549;-66
2023/12/06 00:42:41;;;;;;;;;36.25;30.00;;;;;3.36;89.94;101082.91;5046560;28;12390;-66
2023/12/06 00:45:08;;;;;;;;;33.25;27.00;;;;;3.35;90.22;101086.53;5062818;28;11602;-65
2023/12/06 00:47:36;;;;;;;;;29.75;26.00;;;;;3.38;90.39;101088.09;5066405;28;11599;-66
2023/12/06 00:50:05;;;;;;;;;29.25;25.00;;;;;3.41;90.67;101090.47;5081167;28;11586;-66
2023/12/06 00:52:31;;;;;;;;;30.75;27.00;;;;;3.41;90.43;101093.97;5066747;28;11611;-66
2023/12/06 00:54:58;;;;;;;;;27.75;22.00;;;;;3.45;90.17;101092.72;5047998;28;11607;-66
2023/12/06 00:57:24;;;;;;;;;21.25;18.00;;;;;3.48;90.08;101091.56;5047500;28;11567;-66
2023/12/06 00:59:52;;;;;;;;;24.75;23.50;;;;;3.52;90.23;101092.13;5075243;28;11561;-66
2023/12/06 01:02:19;;;;;;;;;26.50;23.75;;;;;3.53;90.32;101096.50;5068202;28;11578;-66
2023/12/06 01:04:46;;;;;;;;;23.75;19.25;;;;;3.53;90.20;101107.97;5061545;28;11557;-66
2023/12/06 01:07:13;;;;;;;;;32.25;25.75;;;;;3.55;89.91;101099.84;5064625;28;11598;-66
2023/12/06 01:09:40;;;;;;;;;26.00;23.25;;;;;3.54;90.07;101100.81;5068171;28;11572;-66
2023/12/06 01:12:06;;;;;;;;;33.00;27.00;;;;;3.58;90.29;101110.19;5070867;28;11571;-66
2023/12/06 01:14:33;;;;;;;;;24.00;22.00;;;;;3.57;90.05;101103.22;5065831;28;11684;-65
2023/12/06 01:16:59;;;;;;;;;24.00;24.00;;;;;3.58;90.48;101108.38;5069016;28;11629;-66
2023/12/06 01:19:26;;;;;;;;;28.25;25.00;;;;;3.61;89.93;101115.25;5075740;28;11693;-66
2023/12/06 01:21:52;;;;;;;;;29.25;26.75;;;;;3.62;89.95;101108.94;5082585;28;11598;-66
2023/12/06 01:24:19;;;;;;;;;23.25;22.00;;;;;3.64;90.38;101117.59;5070290;28;11591;-66
2023/12/06 01:26:45;;;;;;;;;28.00;24.25;;;;;3.65;90.12;101112.16;5074427;28;11541;-66
2023/12/06 01:29:13;;;;;;;;;24.00;22.75;;;;;3.66;89.99;101123.63;5053450;28;11622;-66
2023/12/06 01:31:39;;;;;;;;;31.50;28.75;;;;;3.65;89.85;101114.81;5083810;28;11549;-66
2023/12/06 01:34:06;;;;;;;;;29.25;28.50;;;;;3.64;90.08;101128.25;5077351;28;11571;-66
2023/12/06 01:36:32;;;;;;;;;27.25;23.00;;;;;3.65;90.06;101128.13;5071444;28;11604;-66
2023/12/06 01:38:59;;;;;;;;;32.00;27.75;;;;;3.68;90.32;101137.63;5070695;28;11729;-66
2023/12/06 01:41:26;;;;;;;;;29.75;26.25;;;;;3.68;89.96;101140.28;5065734;28;11600;-66
2023/12/06 01:43:52;;;;;;;;;28.25;26.25;;;;;3.68;90.03;101145.63;5083324;28;11576;-65
2023/12/06 01:46:19;;;;;;;;;32.75;28.00;;;;;3.67;90.28;101133.31;5073441;28;11561;-66
2023/12/06 01:48:48;;;;;;;;;37.25;33.00;;;;;3.67;90.10;101138.63;5070765;28;11576;-66
2023/12/06 01:51:17;;;;;;;;;29.50;26.50;;;;;3.69;90.27;101142.84;5063542;28;12471;-66
2023/12/06 01:53:44;;;;;;;;;35.00;30.00;;;;;3.68;90.43;101145.63;5074159;28;12439;-66
2023/12/06 01:56:12;;;;;;;;;31.75;28.50;;;;;3.73;90.01;101156.72;5057736;28;11680;-66
2023/12/06 01:58:38;;;;;;;;;32.75;28.75;;;;;3.72;89.93;101155.84;5072855;28;11674;-66
2023/12/06 02:01:05;;;;;;;;;33.25;29.75;;;;;3.74;90.38;101157.53;5071698;28;11717;-68
2023/12/06 02:03:34;;;;;;;;;32.50;29.75;;;;;3.76;90.14;101161.72;5055584;28;11732;-66
2023/12/06 02:06:03;;;;;;;;;33.50;30.25;;;;;3.77;89.80;101162.56;5081019;28;11588;-65
2023/12/06 02:08:33;;;;;;;;;28.00;27.75;;;;;3.78;90.17;101159.78;5066704;28;12345;-66
2023/12/06 02:11:00;;;;;;;;;30.00;26.00;;;;;3.80;90.28;101168.44;5066338;28;11611;-66
2023/12/06 02:13:28;;;;;;;;;26.75;25.50;;;;;3.81;90.03;101178.13;5075353;28;11563;-66
2023/12/06 02:15:55;;;;;;;;;30.25;27.25;;;;;3.82;90.22;101185.13;5076301;28;11640;-66
2023/12/06 02:18:23;;;;;;;;;30.50;25.50;;;;;3.83;89.92;101180.66;5070843;28;11583;-66
2023/12/06 02:20:52;;;;;;;;;30.00;28.75;;;;;3.83;89.65;101181.47;5049608;28;11584;-66
2023/12/06 02:23:23;;;;;;;;;39.75;32.75;;;;;3.79;90.11;101182.75;5075600;28;11593;-66
2023/12/06 02:25:50;;;;;;;;;35.50;31.50;;;;;3.80;90.27;101186.25;5082070;28;11637;-66
2023/12/06 02:28:16;;;;;;;;;34.25;28.75;;;;;3.79;90.60;101187.25;5070346;28;11570;-66
2023/12/06 02:30:43;;;;;;;;;31.00;28.00;;;;;3.77;90.62;101182.06;5073761;28;11556;-66
2023/12/06 02:33:09;;;;;;;;;37.25;32.75;;;;;3.78;90.67;101186.41;5080279;28;11573;-66
2023/12/06 02:35:45;;;;;;;;;26.75;25.25;;;;;3.80;90.57;101187.09;5079409;28;11624;-66
2023/12/06 02:38:14;;;;;;;;;28.25;23.25;;;;;3.82;91.07;101186.97;5071203;28;11624;-66
2023/12/06 02:40:43;;;;;;;;;24.25;23.50;;;;;3.82;91.28;101184.31;5050780;28;11564;-66
2023/12/06 02:43:10;;;;;;;;;25.50;22.25;;;;;3.81;91.39;101185.25;5083733;28;11589;-66
2023/12/06 02:45:37;;;;;;;;;23.50;22.50;;;;;3.83;91.77;101178.81;5068621;28;12394;-66
2023/12/06 02:48:07;;;;;;;;;22.00;22.00;;;;;3.87;91.35;101179.38;5071941;28;11588;-66
2023/12/06 02:50:34;;;;;;;;;19.00;17.25;;;;;3.85;91.44;101190.19;5067019;28;11577;-66
2023/12/06 02:53:00;;;;;;;;;22.50;18.75;;;;;3.89;91.59;101196.03;5084643;28;11643;-66
2023/12/06 02:55:27;;;;;;;;;26.25;22.50;;;;;3.90;91.49;101192.41;5074571;28;11585;-66
2023/12/06 02:57:53;;;;;;;;;24.50;19.25;;;;;3.91;91.44;101191.44;5069833;28;11587;-66
2023/12/06 03:00:20;;;;;;;;;22.50;18.50;;;;;3.92;91.51;101185.09;5047804;28;11559;-65
2023/12/06 03:02:46;;;;;;;;;19.00;19.00;;;;;3.91;91.91;101184.28;5091741;28;11567;-66
2023/12/06 03:05:13;;;;;;;;;20.00;18.00;;;;;3.92;91.68;101188.59;5089716;28;11533;-66
2023/12/06 03:07:39;;;;;;;;;20.00;17.50;;;;;3.93;91.56;101187.66;5049365;28;11569;-66
2023/12/06 03:10:06;;;;;;;;;22.75;17.50;;;;;3.93;91.70;101192.97;5030322;28;11608;-66
2023/12/06 03:12:33;;;;;;;;;17.75;17.50;;;;;3.95;91.61;101196.31;5087678;28;11568;-66
2023/12/06 03:14:59;;;;;;;;;21.25;19.00;;;;;3.96;91.67;101190.00;5077335;28;11581;-66
2023/12/06 03:17:26;;;;;;;;;20.50;18.50;;;;;3.99;91.76;101188.06;5069407;28;11516;-66
2023/12/06 03:19:52;;;;;;;;;31.50;21.50;;;;;3.97;92.00;101191.72;5080351;28;11614;-66
2023/12/06 03:22:19;;;;;;;;;18.00;14.75;;;;;4.00;91.66;101189.72;5056328;28;11581;-66
2023/12/06 03:24:45;;;;;;;;;18.50;18.00;;;;;3.97;92.24;101191.72;5073381;28;11577;-66
2023/12/06 03:27:12;;;;;;;;;21.50;16.25;;;;;4.00;92.23;101197.72;5077268;28;11555;-66
2023/12/06 03:29:38;;;;;;;;;22.75;22.25;;;;;4.00;91.66;101208.38;5060234;28;11698;-66
2023/12/06 03:32:05;;;;;;;;;25.75;24.00;;;;;4.00;nan;101205.72;5074741;28;11680;-66
2023/12/06 03:34:32;;;;;;;;;27.50;22.00;;;;;3.99;91.74;101210.19;5055369;28;11619;-66
2023/12/06 03:36:58;;;;;;;;;24.50;23.00;;;;;4.01;92.01;101210.03;5079588;28;11563;-66
2023/12/06 03:39:26;;;;;;;;;24.75;22.50;;;;;4.03;92.11;101210.75;5070223;28;11626;-66
2023/12/06 03:41:52;;;;;;;;;32.00;23.75;;;;;4.02;91.77;101204.59;5070160;28;11653;-65
2023/12/06 03:44:19;;;;;;;;;23.25;22.75;;;;;4.03;91.79;101202.75;5081896;28;11569;-66
2023/12/06 03:46:45;;;;;;;;;26.00;26.00;;;;;4.00;91.73;101201.22;5080899;28;11590;-65
2023/12/06 03:49:12;;;;;;;;;27.25;24.75;;;;;4.00;91.94;101214.53;5074322;28;11576;-66
2023/12/06 03:51:39;;;;;;;;;28.00;26.75;;;;;4.00;92.11;101206.53;5063320;28;11673;-66
2023/12/06 03:54:06;;;;;;;;;22.25;22.25;;;;;3.97;92.59;101205.03;5078511;28;11673;-66
2023/12/06 03:56:33;;;;;;;;;36.00;32.50;;;;;3.97;92.63;101218.34;5070936;28;11655;-66
2023/12/06 03:58:59;;;;;;;;;28.25;27.25;;;;;3.99;92.97;101220.03;5068890;28;11571;-66
2023/12/06 04:01:26;;;;;;;;;28.75;27.50;;;;;3.95;92.49;101214.97;5068044;28;11615;-66
2023/12/06 04:03:52;;;;;;;;;22.75;21.00;;;;;3.96;92.81;101213.13;5078956;28;11584;-66
2023/12/06 04:06:19;;;;;;;;;15.50;12.75;;;;;3.98;92.96;101213.84;5070578;28;11646;-66
2023/12/06 04:08:45;;;;;;;;;19.50;18.25;;;;;4.00;93.01;101216.38;5068132;28;11606;-66
2023/12/06 04:11:12;;;;;;;;;24.50;21.25;;;;;4.02;93.46;101214.41;5051651;28;11656;-66
2023/12/06 04:13:38;;;;;;;;;22.75;18.75;;;;;4.03;93.22;101211.59;5060631;28;11569;-66
2023/12/06 04:16:06;;;;;;;;;21.00;18.50;;;;;4.05;93.04;101219.44;5061473;28;11590;-66
2023/12/06 04:18:33;;;;;;;;;21.50;19.75;;;;;4.03;93.40;101221.41;5068879;28;11638;-66
2023/12/06 04:21:00;;;;;;;;;19.75;18.25;;;;;4.05;93.42;101219.44;5062172;28;12311;-65
2023/12/06 04:23:27;;;;;;;;;19.25;16.75;;;;;4.05;93.66;101225.63;5079306;28;11531;-66
2023/12/06 04:25:53;;;;;;;;;19.50;19.50;;;;;4.08;93.38;101220.00;5075917;28;11550;-66
2023/12/06 04:28:20;;;;;;;;;18.00;16.25;;;;;4.10;93.59;101215.38;5068553;28;12292;-66
2023/12/06 04:30:46;;;;;;;;;23.00;19.00;;;;;4.07;93.21;101220.97;5065221;28;11541;-66
2023/12/06 04:33:13;;;;;;;;;16.25;16.00;;;;;4.09;93.40;101216.38;5063248;28;11625;-66
2023/12/06 04:35:41;;;;;;;;;24.75;19.00;;;;;4.11;93.76;101226.88;5069673;28;11525;-66
2023/12/06 04:38:07;;;;;;;;;19.00;17.25;;;;;4.12;93.55;101228.53;5069639;28;11614;-66
2023/12/06 04:40:34;;;;;;;;;22.50;19.00;;;;;4.14;93.32;101223.94;5067250;28;11551;-66
2023/12/06 04:43:01;;;;;;;;;18.25;15.75;;;;;4.15;92.96;101233.59;5049513;28;11560;-66
2023/12/06 04:45:27;;;;;;;;;19.00;17.25;;;;;4.16;93.22;101235.25;5061135;28;11561;-67
2023/12/06 04:47:55;;;;;;;;;18.75;17.25;;;;;4.16;93.03;101241.44;5074212;28;11569;-66
2023/12/06 04:50:21;;;;;;;;;23.25;20.00;;;;;4.18;93.37;101236.81;5063690;28;12259;-66
2023/12/06 04:52:48;;;;;;;;;24.00;21.75;;;;;4.17;93.42;101240.47;5062746;28;11535;-67
2023/12/06 04:55:14;;;;;;;;;17.75;16.25;;;;;4.17;93.32;101239.59;5071898;28;11676;-66
2023/12/06 04:57:41;;;;;;;;;24.25;22.25;;;;;4.13;93.10;101239.06;5050059;28;12574;-66
2023/12/06 05:00:09;;;;;;;;;25.50;23.00;;;;;4.16;93.40;101246.75;5085219;28;12436;-67
2023/12/06 05:02:35;;;;;;;;;25.00;20.25;;;;;4.17;92.98;101245.81;5055239;28;11632;-66
2023/12/06 05:05:02;;;;;;;;;24.75;23.25;;;;;4.16;92.73;101244.09;5073928;28;11579;-66
2023/12/06 05:07:29;;;;;;;;;32.00;27.75;;;;;4.15;92.95;101247.75;5054786;28;11553;-66
2023/12/06 05:09:55;;;;;;;;;26.00;23.75;;;;;4.16;93.05;101254.75;5085402;28;11582;-66
2023/12/06 05:12:22;;;;;;;;;27.50;26.00;;;;;4.18;92.68;101263.47;5081378;28;11635;-66
2023/12/06 05:14:48;;;;;;;;;31.75;29.50;;;;;4.15;92.66;101252.25;5062641;28;11567;-66
2023/12/06 05:17:15;;;;;;;;;28.00;24.50;;;;;4.17;92.58;101256.47;5079614;28;11565;-66
2023/12/06 05:19:41;;;;;;;;;25.25;23.25;;;;;4.18;92.78;101265.28;5075367;28;11598;-66
2023/12/06 05:22:08;;;;;;;;;24.25;23.75;;;;;4.20;92.37;101255.31;5077980;28;11550;-66
2023/12/06 05:24:34;;;;;;;;;28.75;26.25;;;;;4.21;92.38;101265.84;5067593;28;11540;-66
2023/12/06 05:27:01;;;;;;;;;26.50;23.75;;;;;4.22;92.32;101264.03;5071806;28;11631;-68
2023/12/06 05:29:27;;;;;;;;;27.75;25.00;;;;;4.22;92.22;101269.34;5064784;28;11648;-66
2023/12/06 05:31:54;;;;;;;;;22.25;22.25;;;;;4.25;92.29;101263.72;5080933;28;11630;-66
2023/12/06 05:34:21;;;;;;;;;32.75;27.50;;;;;4.26;92.03;101262.75;5079971;28;11681;-66
2023/12/06 05:36:47;;;;;;;;;20.25;20.25;;;;;4.27;91.53;101267.09;5055593;28;12331;-66
2023/12/06 05:39:14;;;;;;;;;23.50;21.25;;;;;4.28;92.03;101271.44;5053854;28;11566;-65
2023/12/06 05:41:41;;;;;;;;;30.25;27.50;;;;;4.26;90.87;101272.56;5073564;28;11551;-66
2023/12/06 05:44:07;;;;;;;;;25.50;23.00;;;;;4.20;91.06;101266.81;5082247;28;11588;-66
2023/12/06 05:46:34;;;;;;;;;25.75;24.00;;;;;4.20;91.10;101276.63;5065247;28;11715;-66
2023/12/06 05:49:00;;;;;;;;;24.50;19.50;;;;;4.22;91.55;101278.19;5067495;28;11604;-66
2023/12/06 05:51:27;;;;;;;;;25.50;20.50;;;;;4.25;90.68;101289.53;5071207;28;11584;-66
2023/12/06 05:53:55;;;;;;;;;26.50;21.75;;;;;4.30;89.55;101289.97;5083357;28;11573;-66
2023/12/06 05:56:21;;;;;;;;;33.00;29.50;;;;;4.23;89.65;101289.69;5073044;28;11558;-67
2023/12/06 05:58:47;;;;;;;;;29.75;26.75;;;;;4.24;89.63;101291.34;5054200;28;11610;-65
2023/12/06 06:01:14;;;;;;;;;23.00;17.75;;;;;4.27;89.89;101290.22;5062876;28;11592;-66
2023/12/06 06:03:41;;;;;;;;;24.25;23.50;;;;;4.28;89.26;101295.41;5084386;22;11622;-67
2023/12/06 06:06:08;;;;;;;;;19.75;16.00;;;;;4.30;89.00;101293.47;5061942;28;11624;-70
2023/12/06 06:08:35;;;;;;;;;22.50;21.75;;;;;4.31;88.94;101294.28;5057948;28;12268;-68
2023/12/06 06:11:02;;;;;;;;;19.25;19.00;;;;;4.32;88.70;101302.13;5063968;28;11533;-70
2023/12/06 06:13:29;;;;;;;;;18.75;17.00;;;;;4.32;88.04;101302.13;5059621;28;11511;-69
2023/12/06 06:15:56;;;;;;;;;12.75;11.75;;;;;4.47;92.59;101299.88;5046075;28;11608;-72
2023/12/06 06:18:23;;;;;;;;;20.50;16.75;;;;;4.56;89.45;101308.84;5056112;28;12228;-70
2023/12/06 06:20:51;;;;;;;;;18.75;18.25;;;;;4.54;88.20;101311.66;5033489;28;11671;-69
2023/12/06 06:23:17;;;;;;;;;16.50;16.50;;;;;4.52;88.23;101313.63;5034707;28;11525;-70
2023/12/06 06:25:44;;;;;;;;;22.75;16.00;;;;;4.52;87.40;101312.78;5030023;28;12258;-70
2023/12/06 06:28:11;;;;;;;;;19.00;18.00;;;;;4.50;86.60;101320.06;5026825;28;11556;-69
2023/12/06 06:30:38;;;;;;;;;14.75;11.75;;;;;4.50;86.99;101317.41;5032633;28;11590;-70
2023/12/06 06:33:04;;;;;;;;;22.25;18.00;;;;;4.49;86.99;101318.38;5059409;28;11499;-71
2023/12/06 06:35:31;;;;;;;;;17.25;14.75;;;;;4.48;86.31;101322.88;5049273;28;11527;-72
2023/12/06 06:37:58;;;;;;;;;20.50;11.00;;;;;4.51;87.18;101321.75;5037686;28;11536;-70
2023/12/06 06:40:24;;;;;;;;;20.25;19.75;;;;;4.46;86.74;101317.69;5037273;28;12327;-70
2023/12/06 06:42:54;;;;;;;;;26.50;23.25;;;;;4.43;86.57;101319.81;5051717;28;11503;-67
2023/12/06 06:45:21;;;;;;;;;17.25;16.50;;;;;4.39;86.57;101316.59;5040357;28;11622;-69
2023/12/06 06:47:48;;;;;;;;;16.00;14.75;;;;;4.46;85.46;101324.88;5020899;28;11551;-72
2023/12/06 06:50:15;;;;;;;;;19.75;17.75;;;;;4.45;86.10;101317.81;5048367;28;11505;-73
2023/12/06 06:52:45;;;;;;;;;15.50;15.50;;;;;4.52;85.42;101326.09;5046154;28;12246;-69
2023/12/06 06:55:12;;;;;;;;;19.00;18.75;;;;;4.51;85.61;101317.28;5022556;28;11508;-68
2023/12/06 06:57:38;;;;;;;;;19.25;16.00;;;;;4.49;85.47;101323.72;5051116;28;11621;-71
2023/12/06 07:00:10;;;;;;;;;19.00;15.50;;;;;4.49;85.63;101335.22;5030502;28;11509;-71
2023/12/06 07:02:38;;;;;;;;;15.50;15.50;;;;;4.50;85.10;101333.38;5043978;28;11441;-71
2023/12/06 07:05:06;;;;;;;;;15.25;11.25;;;;;4.51;85.52;101332.44;5046346;28;11523;-71
2023/12/06 07:07:32;;;;;;;;;16.75;12.50;;;;;4.50;85.04;101326.25;5050999;28;11440;-71
2023/12/06 07:09:59;;;;;;;;;8.75;8.75;;;;;4.54;84.67;101321.44;5046566;28;11427;-71
2023/12/06 07:12:26;;;;;;;;;10.00;10.00;;;;;4.56;85.08;101330.16;5029358;28;11436;-70
2023/12/06 07:14:52;;;;;;;;;8.00;8.00;;;;;4.57;84.61;101331.84;5039580;28;11414;-70
2023/12/06 07:17:19;;;;;;;;;15.50;14.50;;;;;4.53;84.07;101341.94;5048770;28;11441;-71
2023/12/06 07:19:46;;;;;;;;;16.00;14.50;;;;;4.51;84.54;101341.25;5036817;28;12086;-70
2023/12/06 07:22:13;;;;;;;;;19.50;14.00;;;;;4.50;84.42;101346.72;5012792;28;11481;-71
2023/12/06 07:24:40;;;;;;;;;12.50;12.00;;;;;4.51;84.40;101349.25;5045068;28;12130;-71
2023/12/06 07:27:06;;;;;;;;;9.00;9.00;;;;;4.55;83.90;101352.50;5051320;28;11389;-70
2023/12/06 07:29:33;;;;;;;;;12.25;12.25;;;;;4.57;84.44;101355.84;5050385;28;11432;-70
2023/12/06 07:31:59;;;;;;;;;14.75;14.75;;;;;4.57;84.58;101350.50;5033248;28;11457;-71
2023/12/06 07:34:26;;;;;;;;;16.50;12.75;;;;;4.58;83.98;101362.88;5050906;28;11429;-71
2023/12/06 07:37:07;;;;;;;;;12.00;10.00;;;;;4.59;84.29;101365.38;5033075;28;11442;-71
2023/12/06 07:39:34;;;;;;;;;12.75;10.50;;;;;4.61;84.36;101367.91;5050156;28;12190;-72
2023/12/06 07:42:00;;;;;;;;;12.25;12.00;;;;;4.62;84.29;101372.28;5032931;28;11447;-71
2023/12/06 07:44:27;;;;;;;;;11.75;11.50;;;;;4.63;83.98;101373.94;5032737;28;11408;-69
2023/12/06 07:46:53;;;;;;;;;13.00;12.00;;;;;4.62;84.24;101377.59;5032234;28;11527;-71
2023/12/06 07:49:20;;;;;;;;;17.50;12.00;;;;;4.63;84.34;101376.63;5049968;28;12148;-71
2023/12/06 07:51:46;;;;;;;;;15.50;14.00;;;;;4.62;84.36;101381.09;5050682;28;11383;-71
2023/12/06 07:54:14;;;;;;;;;11.75;10.50;;;;;4.63;84.38;101384.63;5032684;28;11509;-72
2023/12/06 07:56:41;;;;;;;;;12.50;12.50;;;;;4.66;84.69;101381.66;5050699;28;11446;-71
2023/12/06 07:59:07;;;;;;;;;16.50;14.50;;;;;4.67;84.58;101386.84;5032306;28;11387;-71
2023/12/06 08:01:34;;;;;;;;;16.50;14.75;;;;;4.67;84.34;101391.34;5050696;28;11402;-71
2023/12/06 08:04:00;;;;;;;;;16.75;13.25;;;;;4.68;84.60;101391.19;5050207;28;11413;-71
2023/12/06 08:06:27;;;;;;;;;18.25;16.25;;;;;4.69;84.68;101392.03;5032803;28;11412;-72
2023/12/06 08:08:54;;;;;;;;;26.00;17.25;;;;;4.69;84.30;101387.53;5032078;28;11505;-71
2023/12/06 08:11:20;;;;;;;;;22.50;18.00;;;;;4.69;84.36;101386.69;5032684;28;11520;-72
2023/12/06 08:13:47;;;;;;;;;17.50;15.50;;;;;4.70;84.51;101394.56;5032464;28;11477;-71
2023/12/06 08:16:13;;;;;;;;;22.00;20.00;;;;;4.69;84.61;101384.03;5032295;28;11786;-71
2023/12/06 08:18:40;;;;;;;;;17.00;15.50;;;;;4.69;84.48;101381.34;5015676;28;11476;-71
2023/12/06 08:21:09;;;;;;;;;18.50;14.25;;;;;4.69;84.57;101395.53;5050191;28;11448;-72
2023/12/06 08:23:36;;;;;;;;;12.00;12.00;;;;;4.68;84.36;101399.19;5048896;28;12151;-70
2023/12/06 08:26:06;;;;;;;;;21.00;18.75;;;;;4.70;84.55;101404.41;5050272;28;11477;-71
2023/12/06 08:28:33;;;;;;;;;20.25;18.00;;;;;4.70;84.34;101402.56;5049855;28;11395;-71
2023/12/06 08:30:59;;;;;;;;;15.50;15.50;;;;;4.71;84.82;101409.56;5032014;28;11472;-72
2023/12/06 08:33:26;;;;;;;;;16.00;15.25;;;;;4.71;85.08;101404.25;5050303;28;11385;-71
2023/12/06 08:35:52;;;;;;;;;17.75;14.25;;;;;4.74;84.57;101402.25;5050247;28;11526;-70
2023/12/06 08:38:19;;;;;;;;;15.00;13.25;;;;;4.76;84.96;101406.47;5048528;28;11415;-72
2023/12/06 08:40:45;;;;;;;;;14.50;12.00;;;;;4.75;84.82;101404.81;5049721;28;11442;-72
2023/12/06 08:43:13;;;;;;;;;24.00;17.25;;;;;4.76;85.01;101403.81;5050088;28;11439;-71
2023/12/06 08:45:39;;;;;;;;;17.00;14.25;;;;;4.76;85.01;101406.47;5050127;28;11443;-71
2023/12/06 08:48:06;;;;;;;;;25.00;19.75;;;;;4.78;84.42;101407.19;5031598;28;11403;-71
2023/12/06 08:50:33;;;;;;;;;15.25;14.00;;;;;4.80;84.70;101417.72;5049189;28;11576;-71
2023/12/06 08:53:00;;;;;;;;;20.50;20.50;;;;;4.82;85.07;101421.06;5049427;28;11455;-71
2023/12/06 08:55:26;;;;;;;;;15.50;15.00;;;;;4.84;84.99;101424.44;5049955;28;11507;-71
2023/12/06 08:57:53;;;;;;;;;22.00;20.25;;;;;4.86;84.87;101434.00;5049485;28;12230;-70
2023/12/06 09:00:19;;;;;;;;;20.25;19.25;;;;;4.87;84.71;101441.00;5049565;28;11404;-71
2023/12/06 09:02:46;;;;;;;;;20.00;17.75;;;;;4.90;84.37;101439.84;5031225;28;11376;-71
2023/12/06 09:05:13;;;;;;;;;22.50;19.75;;;;;4.93;84.63;101445.75;5048623;28;12193;-70
2023/12/06 09:07:40;;;;;;;;;17.00;16.00;;;;;4.96;84.50;101447.31;5031619;28;11449;-70
2023/12/06 09:10:10;;;;;;;;;16.25;16.00;;;;;5.03;84.23;101451.09;5047947;28;11432;-72
2023/12/06 09:12:37;;;;;;;;;17.75;14.50;;;;;5.08;84.12;101448.84;5049811;28;11407;-71
2023/12/06 09:15:04;;;;;;;;;16.25;12.75;;;;;5.13;84.33;101446.56;5049527;28;11399;-72
2023/12/06 09:17:31;;;;;;;;;18.50;18.50;;;;;5.18;83.87;101443.47;5049638;28;11392;-72
2023/12/06 09:19:57;;;;;;;;;25.25;18.75;;;;;5.22;83.48;101442.19;5048798;28;11411;-70
2023/12/06 09:22:24;;;;;;;;;19.50;17.00;;;;;5.24;83.19;101437.56;5049556;28;11405;-71
2023/12/06 09:24:52;;;;;;;;;21.50;19.50;;;;;5.24;82.98;101440.22;5049507;28;12124;-71
2023/12/06 09:27:18;;;;;;;;;24.00;21.75;;;;;5.24;82.46;101442.91;5049629;28;11399;-70
2023/12/06 09:29:45;;;;;;;;;17.00;14.50;;;;;5.26;82.21;101446.25;5048726;28;11562;-71
2023/12/06 09:32:12;;;;;;;;;15.00;13.75;;;;;5.30;82.20;101436.13;5048264;28;11623;-71
2023/12/06 09:34:39;;;;;;;;;14.25;14.25;;;;;5.36;81.87;101441.75;5031516;28;11411;-71
2023/12/06 09:37:08;;;;;;;;;16.50;15.75;;;;;5.43;81.81;101444.69;5032115;28;11428;-71
2023/12/06 09:39:36;;;;;;;;;15.75;13.75;;;;;5.48;82.46;101445.06;5051901;28;11456;-72
2023/12/06 09:42:03;;;;;;;;;10.25;9.50;;;;;5.53;81.50;101442.78;5052948;28;11514;-72
2023/12/06 09:44:31;;;;;;;;;14.75;14.25;;;;;5.59;81.15;101439.56;5052988;28;11442;-71
2023/12/06 09:46:59;;;;;;;;;15.50;14.00;;;;;5.63;81.15;101445.41;5052965;28;11573;-71
2023/12/06 09:49:26;;;;;;;;;17.00;12.50;;;;;5.68;80.99;101449.34;5034424;28;11428;-72
2023/12/06 09:52:03;;;;;;;;;14.50;13.75;;;;;5.75;80.89;101462.94;5052791;28;11418;-71
2023/12/06 09:54:29;;;;;;;;;15.50;13.00;;;;;5.89;81.31;101458.94;5035179;28;11436;-72
2023/12/06 09:56:56;;;;;;;;;12.50;12.50;;;;;6.00;80.67;101464.13;5034813;28;11423;-72
2023/12/06 09:59:22;;;;;;;;;12.50;12.50;;;;;6.10;80.74;101462.22;5052432;28;11537;-73
2023/12/06 10:01:49;;;;;;;;;15.75;13.25;;;;;6.14;79.57;101470.78;5052732;28;11481;-71
2023/12/06 10:04:15;;;;;;;;;18.25;17.00;;;;;6.19;79.78;101471.19;5035106;28;11450;-71
2023/12/06 10:06:42;;;;;;;;;17.00;15.75;;;;;6.24;78.65;101468.03;5034570;28;11476;-70
2023/12/06 10:09:10;;;;;;;;;18.25;17.00;;;;;6.20;78.67;101467.53;5051971;28;12106;-71
2023/12/06 10:11:37;;;;;;;;;16.25;14.50;;;;;6.15;78.48;101469.78;5034562;28;11462;-70
2023/12/06 10:14:03;;;;;;;;;13.50;12.25;;;;;6.06;78.85;101473.38;5034688;28;12168;-71
2023/12/06 10:16:30;;;;;;;;;14.50;12.00;;;;;5.95;78.15;101485.09;5052574;28;11448;-71
2023/12/06 10:18:56;;;;;;;;;16.00;14.50;;;;;5.90;78.60;101477.50;5052537;28;11445;-71
2023/12/06 10:21:23;;;;;;;;;14.75;14.75;;;;;5.86;78.90;101481.44;5052238;28;11397;-70
2023/12/06 10:23:55;;;;;;;;;10.00;10.00;;;;;5.85;79.36;101476.25;5052055;28;11391;-72
2023/12/06 10:26:22;;;;;;;;;18.00;14.25;;;;;5.75;79.16;101476.28;5034822;28;11448;-71
2023/12/06 10:28:48;;;;;;;;;16.25;16.25;;;;;5.74;79.48;101476.44;5051963;28;11441;-71
2023/12/06 10:31:15;;;;;;;;;15.75;15.75;;;;;5.63;80.05;101482.81;5033995;28;11453;-71
2023/12/06 10:33:43;;;;;;;;;13.50;13.50;;;;;5.58;79.56;101479.75;5052123;28;11461;-71
2023/12/06 10:36:13;;;;;;;;;17.00;14.00;;;;;5.58;79.38;101483.25;5034520;28;11459;-71
2023/12/06 10:38:43;;;;;;;;;14.75;13.00;;;;;5.57;79.77;101480.72;5034031;28;11435;-71
2023/12/06 10:41:11;;;;;;;;;12.75;12.75;;;;;5.61;79.64;101482.13;5051699;28;11526;-70
2023/12/06 10:43:38;;;;;;;;;11.50;11.50;;;;;5.67;80.00;101484.19;5052180;28;11463;-71
2023/12/06 10:46:07;;;;;;;;;16.25;14.75;;;;;5.69;79.18;101485.75;5050461;28;11221;-72
2023/12/06 10:48:35;;;;;;;;;9.00;9.00;;;;;5.72;78.89;101494.47;5051619;28;11456;-73
2023/12/06 10:51:04;;;;;;;;;11.75;9.25;;;;;5.76;78.57;101487.84;5035730;28;11261;-71
2023/12/06 10:53:32;;;;;;;;;14.50;12.50;;;;;5.77;78.59;101478.84;5014418;28;11442;-71
2023/12/06 10:56:01;;;;;;;;;12.25;9.25;;;;;5.78;78.80;101480.50;5031600;28;11448;-71
2023/12/06 10:58:29;;;;;;;;;11.50;10.25;;;;;5.75;78.89;101478.97;5013958;28;11468;-70
2023/12/06 11:00:58;;;;;;;;;12.75;11.75;;;;;5.71;79.16;101480.25;5012234;28;11469;-71
2023/12/06 11:03:25;;;;;;;;;9.75;9.00;;;;;5.70;79.57;101491.91;5033689;28;11430;-71
2023/12/06 11:05:56;;;;;;;;;12.25;10.00;;;;;5.69;79.63;101490.25;5033880;28;11482;-71
2023/12/06 11:09:13;;;;;;;;;12.00;12.00;;;;;5.67;80.11;101493.06;5050081;28;11484;-71
2023/12/06 11:11:55;;;;;;;;;13.00;12.50;;;;;5.70;79.92;101490.09;4964187;28;11515;-71
2023/12/06 11:14:39;;;;;;;;;12.00;10.00;;;;;5.78;80.62;101488.53;5033812;28;11473;-71
2023/12/06 11:17:22;;;;;;;;;17.50;13.50;;;;;5.89;80.72;101485.66;5033457;28;11409;-71